Airfield :
LOGIN :

Register | Disclaimer

   EN    FR    IT 

 










Legend :    VFR   Marginal VFR   IFR   Intensive IFR   Very Intensive IFR
Visi :
Ceiling :
>= 8 km
>= 3000ft
5 to 8 km
1000 to 3000 ft
1500m to 5 km
500 to 1000 ft
800 to 1500m
200 to 500 ft
< 800m
< 200 ft
Symbols :   Thunderstorms  Fog  Heavy snow  Heavy precipitations  Wind > 20 kt
SIGMETs :     Misc.  Thunderstorms  Icing  Turbulence  Mountain Waves  Volcanic Ashes






- Airport Elevation : 154 ft
- IATA code : SZZ


EPSC - Szczecin Goleniow

CURRENT METAR :
  • 020530Z 30003KT 270V330 CAVOK 14/09 Q1020

EXPIRED METARs :
  • 020500Z VRB02KT CAVOK 13/09 Q1020
  • 020430Z VRB01KT CAVOK 11/08 Q1020
  • 020400Z VRB01KT CAVOK 09/06 Q1020
  • 020330Z 30002KT CAVOK 07/06 Q1020
  • 020300Z 28002KT CAVOK 07/05 Q1020

TAF TAF EPSC
Valid from the 02 at 06:00 until the 03 at 06:00 UTC


020530Z 0206/0306 VRB02KT CAVOK
BECMG 0207/0209 34010KT
BECMG 0220/0223 05005KT



MET'MAP, your aeronautical weather chart ! - Copyright ORBIFLY December 2007 - Disclaimer

ORBIFLY MET'MAP TEAM :

Programming & Development : Alexandra Zaïnal
Concept & original design : Baudouin d'Aumeries
Assistance for programming : Marc-Olivier Méhu
Technical & hardware support : Manuel Goepfert

Contact : metmap@orbifly.com




SOURCES & CREDITS :

   NOAA